createdAt,value
2022-09-17T00:00:16.154Z,3.10
2022-09-17T00:02:52.392Z,3.47
2022-09-17T00:05:26.129Z,3.92
2022-09-17T00:07:59.640Z,3.45
2022-09-17T00:10:33.888Z,2.70
2022-09-17T00:13:09.989Z,3.30
2022-09-17T00:15:44.539Z,3.47
2022-09-17T00:18:18.257Z,3.33
2022-09-17T00:20:51.762Z,2.92
2022-09-17T00:23:25.291Z,3.92
2022-09-17T00:25:59.248Z,2.78
2022-09-17T00:31:10.047Z,3.00
2022-09-17T00:33:43.567Z,3.38
2022-09-17T00:36:17.286Z,3.47
2022-09-17T00:38:51.719Z,3.22
2022-09-17T00:41:26.556Z,3.45
2022-09-17T00:44:03.722Z,3.80
2022-09-17T00:46:40.187Z,4.15
2022-09-17T00:49:19.331Z,3.50
2022-09-17T00:52:00.519Z,3.30
2022-09-17T00:54:35.266Z,3.45
2022-09-17T00:57:09.184Z,3.58
2022-09-17T00:59:44.329Z,3.13
2022-09-17T01:02:18.526Z,4.07
2022-09-17T01:04:52.343Z,3.40
2022-09-17T01:10:33.243Z,3.30
2022-09-17T01:13:20.454Z,3.15
2022-09-17T01:16:03.271Z,3.33
2022-09-17T01:18:50.720Z,3.40
2022-09-17T01:21:38.862Z,3.58
2022-09-17T01:24:43.015Z,3.28
2022-09-17T01:27:52.083Z,3.67
2022-09-17T01:30:58.172Z,3.58
2022-09-17T01:33:41.932Z,3.85
2022-09-17T01:36:29.670Z,3.50
2022-09-17T01:39:13.713Z,3.53
2022-09-17T01:41:54.997Z,3.08
2022-09-17T01:44:33.619Z,3.90
2022-09-17T01:47:18.855Z,3.95
2022-09-17T01:50:01.734Z,3.88
2022-09-17T01:52:37.479Z,4.38
2022-09-17T01:55:14.087Z,3.63
2022-09-17T01:57:53.114Z,4.10
2022-09-17T02:00:27.230Z,3.88
2022-09-17T02:03:05.502Z,4.10
2022-09-17T02:05:44.357Z,3.72
2022-09-17T02:08:21.890Z,4.15
2022-09-17T02:11:01.181Z,4.40
2022-09-17T02:13:40.375Z,3.97
2022-09-17T02:16:17.796Z,4.57
2022-09-17T02:18:56.241Z,4.25
2022-09-17T02:21:39.658Z,4.00
2022-09-17T02:24:19.229Z,3.70
2022-09-17T02:26:59.374Z,3.45
2022-09-17T02:29:36.224Z,3.65
2022-09-17T02:32:10.517Z,3.72
2022-09-17T02:34:44.260Z,4.10
2022-09-17T02:42:33.800Z,3.90
2022-09-17T02:45:16.256Z,4.07
2022-09-17T02:48:07.279Z,3.55
2022-09-17T02:51:20.130Z,3.45
2022-09-17T02:54:03.885Z,3.75
2022-09-17T02:56:46.381Z,4.10
2022-09-17T02:59:26.269Z,3.83
2022-09-17T03:02:04.988Z,3.92
2022-09-17T03:04:40.600Z,3.67
2022-09-17T03:07:15.081Z,3.70
2022-09-17T03:09:49.948Z,4.10
2022-09-17T03:12:24.707Z,3.58
2022-09-17T03:14:58.164Z,4.10
2022-09-17T03:17:31.675Z,3.70
2022-09-17T03:20:05.858Z,4.00
2022-09-17T03:22:39.267Z,3.95
2022-09-17T03:25:14.241Z,4.35
2022-09-17T03:27:48.403Z,4.35
2022-09-17T03:30:21.938Z,3.83
2022-09-17T03:32:55.314Z,4.10
2022-09-17T03:35:28.887Z,4.00
2022-09-17T03:38:02.239Z,4.50
2022-09-17T03:40:37.178Z,4.13
2022-09-17T03:43:10.721Z,3.60
2022-09-17T03:45:45.052Z,4.50
2022-09-17T03:48:18.467Z,4.40
2022-09-17T03:50:52.046Z,3.83
2022-09-17T03:53:25.709Z,4.10
2022-09-17T03:56:01.949Z,4.18
2022-09-17T03:58:35.886Z,3.95
2022-09-17T04:01:09.490Z,4.22
2022-09-17T04:03:43.487Z,3.63
2022-09-17T04:08:50.061Z,4.45
2022-09-17T04:11:24.938Z,3.92
2022-09-17T04:13:58.498Z,3.88
2022-09-17T04:16:32.074Z,3.95
2022-09-17T04:19:05.742Z,3.97
2022-09-17T04:21:39.172Z,4.00
2022-09-17T04:24:12.669Z,3.72
2022-09-17T04:26:47.535Z,3.78
2022-09-17T04:29:20.934Z,4.40
2022-09-17T04:31:54.395Z,3.80
2022-09-17T04:34:27.817Z,3.80
2022-09-17T04:37:01.203Z,3.75
2022-09-17T04:39:34.668Z,3.28
2022-09-17T04:42:09.668Z,3.97
2022-09-17T04:44:43.074Z,3.72
2022-09-17T04:47:16.447Z,3.60
2022-09-17T04:49:49.844Z,3.72
2022-09-17T04:52:25.533Z,3.85
2022-09-17T04:55:01.042Z,3.65
2022-09-17T04:57:36.038Z,3.65
2022-09-17T05:00:11.183Z,3.90
2022-09-17T05:02:46.526Z,4.07
2022-09-17T05:05:21.060Z,3.92
2022-09-17T05:07:54.517Z,4.03
2022-09-17T05:10:28.067Z,3.08
2022-09-17T05:13:02.841Z,3.83
2022-09-17T05:15:36.281Z,3.88
2022-09-17T05:18:09.670Z,3.80
2022-09-17T05:20:44.729Z,3.50
2022-09-17T05:23:18.262Z,3.75
2022-09-17T05:25:53.025Z,3.33
2022-09-17T05:28:28.022Z,3.00
2022-09-17T05:31:02.440Z,3.75
2022-09-17T05:33:36.039Z,3.55
2022-09-17T05:36:09.589Z,2.97
2022-09-17T05:38:43.341Z,3.00
2022-09-17T05:41:16.863Z,2.92
2022-09-17T05:43:51.724Z,3.10
2022-09-17T05:46:25.398Z,3.50
2022-09-17T05:48:59.284Z,2.80
2022-09-17T05:54:06.734Z,2.55
2022-09-17T05:59:15.736Z,2.97
2022-09-17T06:01:50.109Z,3.03
2022-09-17T06:04:23.593Z,3.28
2022-09-17T06:06:57.151Z,2.90
2022-09-17T06:09:30.590Z,2.85
2022-09-17T06:12:04.824Z,3.70
2022-09-17T06:14:39.707Z,3.20
2022-09-17T06:17:13.389Z,2.60
2022-09-17T06:19:46.797Z,2.67
2022-09-17T06:22:21.320Z,5.15
2022-09-17T06:24:54.772Z,2.85
2022-09-17T06:27:32.436Z,2.63
2022-09-17T06:30:08.781Z,2.78
2022-09-17T06:32:42.240Z,2.83
2022-09-17T06:35:15.822Z,3.13
2022-09-17T06:40:23.535Z,2.55
2022-09-17T06:42:59.351Z,3.03
2022-09-17T06:45:35.285Z,2.63
2022-09-17T06:48:08.799Z,3.30
2022-09-17T06:50:42.957Z,2.95
2022-09-17T06:53:17.191Z,2.53
2022-09-17T06:55:50.834Z,2.40
2022-09-17T06:58:24.392Z,2.58
2022-09-17T07:01:02.410Z,2.42
2022-09-17T07:03:35.963Z,2.42
2022-09-17T07:08:44.238Z,6.22
2022-09-17T07:11:17.741Z,2.95
2022-09-17T07:13:53.078Z,2.50
2022-09-17T07:16:28.281Z,2.45
2022-09-17T07:19:01.932Z,2.95
2022-09-17T07:21:35.358Z,2.92
2022-09-17T07:24:09.088Z,2.65
2022-09-17T07:29:15.851Z,2.95
2022-09-17T07:31:51.111Z,2.50
2022-09-17T07:34:24.575Z,2.95
2022-09-17T07:36:58.128Z,2.58
2022-09-17T07:39:31.942Z,2.42
2022-09-17T07:44:39.196Z,2.78
2022-09-17T07:49:49.778Z,2.58
2022-09-17T07:52:23.428Z,2.70
2022-09-17T07:54:56.870Z,2.80
2022-09-17T07:57:30.471Z,2.70
2022-09-17T08:00:05.117Z,2.60
2022-09-17T08:02:46.600Z,3.05
2022-09-17T08:05:20.182Z,3.20
2022-09-17T08:07:54.231Z,2.60
2022-09-17T08:10:31.420Z,2.85
2022-09-17T08:13:05.017Z,6.55
2022-09-17T08:15:38.386Z,3.40
2022-09-17T08:18:13.217Z,3.25
2022-09-17T08:20:46.773Z,2.65
2022-09-17T08:23:20.181Z,2.45
2022-09-17T08:25:54.730Z,2.33
2022-09-17T08:28:29.992Z,1.83
2022-09-17T08:31:04.732Z,2.30
2022-09-17T08:33:41.307Z,2.28
2022-09-17T08:36:16.504Z,2.60
2022-09-17T08:38:54.294Z,2.13
2022-09-17T08:41:42.109Z,2.28
2022-09-17T08:44:29.167Z,2.40
2022-09-17T08:47:10.311Z,1.95
2022-09-17T08:49:54.165Z,2.20
2022-09-17T08:55:35.305Z,2.10
2022-09-17T08:58:39.176Z,7.55
2022-09-17T09:01:33.002Z,2.15
2022-09-17T09:04:33.668Z,2.40
2022-09-17T09:07:15.617Z,1.85
2022-09-17T09:09:54.194Z,1.80
2022-09-17T09:12:35.345Z,2.15
2022-09-17T09:15:23.096Z,2.30
2022-09-17T09:17:59.689Z,2.00
2022-09-17T09:20:43.037Z,2.35
2022-09-17T09:23:21.665Z,2.08
2022-09-17T09:26:01.607Z,1.95
2022-09-17T09:28:50.749Z,2.45
2022-09-17T09:31:43.356Z,2.50
2022-09-17T09:34:19.096Z,1.90
2022-09-17T09:36:54.637Z,2.17
2022-09-17T09:39:42.513Z,3.08
2022-09-17T09:42:30.631Z,2.40
2022-09-17T09:45:17.622Z,2.10
2022-09-17T09:48:02.427Z,2.10
2022-09-17T09:51:05.680Z,2.08
2022-09-17T09:53:51.130Z,1.80
2022-09-17T09:56:50.826Z,1.90
2022-09-17T09:59:24.743Z,1.80
2022-09-17T10:01:58.342Z,11.45
2022-09-17T10:04:33.683Z,1.60
2022-09-17T10:07:08.581Z,1.50
2022-09-17T10:09:47.489Z,1.75
2022-09-17T10:12:22.672Z,1.70
2022-09-17T10:15:30.638Z,1.70
2022-09-17T10:18:17.410Z,1.95
2022-09-17T10:20:57.640Z,1.85
2022-09-17T10:23:34.560Z,2.35
2022-09-17T10:26:08.169Z,2.75
2022-09-17T10:31:22.095Z,2.50
2022-09-17T10:33:59.186Z,3.50
2022-09-17T10:36:43.978Z,2.78
2022-09-17T10:39:36.510Z,2.85
2022-09-17T10:42:15.979Z,2.92
2022-09-17T10:44:56.349Z,3.20
2022-09-17T10:47:39.953Z,3.88
2022-09-17T10:50:20.300Z,3.67
2022-09-17T10:52:56.170Z,3.17
2022-09-17T10:55:34.067Z,3.03
2022-09-17T10:58:21.658Z,3.78
2022-09-17T11:01:08.658Z,3.97
2022-09-17T11:04:16.172Z,3.05
2022-09-17T11:07:24.958Z,2.78
2022-09-17T11:10:09.421Z,2.33
2022-09-17T11:12:58.995Z,2.00
2022-09-17T11:15:47.670Z,1.98
2022-09-17T11:18:48.473Z,2.30
2022-09-17T11:21:41.728Z,2.13
2022-09-17T11:24:48.929Z,2.40
2022-09-17T11:27:38.854Z,1.77
2022-09-17T11:30:18.355Z,2.45
2022-09-17T11:33:03.821Z,2.47
2022-09-17T11:35:41.427Z,1.98
2022-09-17T11:38:22.218Z,1.83
2022-09-17T11:41:04.526Z,1.92
2022-09-17T11:43:41.298Z,2.13
2022-09-17T11:46:20.145Z,1.75
2022-09-17T11:49:01.150Z,2.92
2022-09-17T11:51:38.765Z,1.75
2022-09-17T11:54:24.637Z,2.03
2022-09-17T11:57:09.619Z,1.60
2022-09-17T11:59:48.305Z,1.90
2022-09-17T12:02:26.818Z,1.98
2022-09-17T12:05:05.052Z,1.80
2022-09-17T12:07:59.619Z,2.17
2022-09-17T12:10:46.421Z,2.15
2022-09-17T12:13:29.288Z,1.75
2022-09-17T12:16:14.894Z,1.67
2022-09-17T12:18:58.293Z,1.40
2022-09-17T12:21:38.372Z,1.40
2022-09-17T12:24:22.965Z,1.60
2022-09-17T12:27:19.503Z,1.88
2022-09-17T12:30:10.963Z,1.90
2022-09-17T12:33:04.547Z,1.92
2022-09-17T12:36:04.537Z,2.25
2022-09-17T12:39:03.064Z,1.80
2022-09-17T12:41:52.216Z,1.90
2022-09-17T12:44:50.505Z,2.20
2022-09-17T12:47:51.386Z,2.92
2022-09-17T12:50:43.227Z,2.15
2022-09-17T12:53:30.922Z,2.33
2022-09-17T12:56:13.145Z,2.72
2022-09-17T12:59:03.861Z,2.53
2022-09-17T13:01:55.328Z,3.17
2022-09-17T13:05:07.803Z,3.30
2022-09-17T13:08:22.596Z,3.67
2022-09-17T13:13:55.752Z,4.05
2022-09-17T13:16:38.974Z,3.92
2022-09-17T13:19:30.570Z,3.83
2022-09-17T13:22:10.545Z,3.60
2022-09-17T13:24:47.328Z,3.30
2022-09-17T13:27:28.625Z,3.10
2022-09-17T13:30:02.785Z,3.55
2022-09-17T13:32:50.170Z,5.53
2022-09-17T13:35:50.741Z,3.70
2022-09-17T13:38:24.995Z,3.60
2022-09-17T13:41:21.907Z,3.50
2022-09-17T13:43:56.614Z,3.70
2022-09-17T13:46:33.728Z,3.60
2022-09-17T13:49:14.774Z,3.70
2022-09-17T13:51:56.027Z,4.38
2022-09-17T13:54:39.090Z,4.47
2022-09-17T13:57:16.271Z,4.45
2022-09-17T13:59:58.526Z,4.22
2022-09-17T14:02:44.657Z,4.07
2022-09-17T14:05:40.674Z,4.07
2022-09-17T14:08:49.917Z,10.05
2022-09-17T14:11:39.358Z,4.55
2022-09-17T14:14:48.901Z,3.97
2022-09-17T14:17:58.956Z,3.28
2022-09-17T14:20:36.804Z,4.05
2022-09-17T14:23:15.938Z,4.10
2022-09-17T14:26:04.129Z,3.90
2022-09-17T14:28:47.464Z,3.85
2022-09-17T14:31:29.266Z,4.30
2022-09-17T14:37:04.246Z,3.92
2022-09-17T14:39:43.077Z,4.00
2022-09-17T14:42:22.505Z,4.40
2022-09-17T14:45:00.485Z,4.30
2022-09-17T14:47:34.108Z,4.22
2022-09-17T14:50:23.228Z,4.47
2022-09-17T14:52:56.801Z,4.32
2022-09-17T14:55:33.767Z,4.20
2022-09-17T14:58:29.803Z,4.47
2022-09-17T15:01:03.630Z,4.90
2022-09-17T15:03:37.200Z,4.15
2022-09-17T15:06:22.031Z,4.78
2022-09-17T15:09:01.838Z,5.20
2022-09-17T15:14:41.170Z,5.03
2022-09-17T15:17:17.577Z,7.63
2022-09-17T15:19:58.071Z,9.95
2022-09-17T15:22:36.033Z,5.07
2022-09-17T15:25:16.252Z,5.00
2022-09-17T15:27:49.974Z,5.93
2022-09-17T15:33:00.913Z,5.63
2022-09-17T15:35:35.381Z,5.95
2022-09-17T15:38:23.703Z,7.13
2022-09-17T15:41:12.542Z,6.65
2022-09-17T15:43:49.498Z,5.82
2022-09-17T15:46:28.130Z,6.28
2022-09-17T15:49:05.928Z,5.75
2022-09-17T15:51:40.356Z,6.22
2022-09-17T15:54:30.831Z,6.60
2022-09-17T15:57:05.061Z,7.32
2022-09-17T15:59:38.484Z,6.63
2022-09-17T16:02:28.309Z,7.93
2022-09-17T16:05:35.358Z,7.20
2022-09-17T16:08:24.207Z,8.32
2022-09-17T16:10:58.342Z,7.10
2022-09-17T16:13:31.909Z,6.80
2022-09-17T16:16:06.119Z,7.72
2022-09-17T16:18:41.173Z,7.88
2022-09-17T16:21:15.711Z,7.45
2022-09-17T16:23:54.155Z,6.53
2022-09-17T16:26:31.207Z,7.00
2022-09-17T16:29:08.361Z,7.05
2022-09-17T16:31:41.978Z,20.30
2022-09-17T16:34:16.911Z,26.83
2022-09-17T16:36:51.909Z,8.75
2022-09-17T16:39:25.436Z,12.52
2022-09-17T16:44:32.316Z,8.07
2022-09-17T16:47:06.498Z,9.38
2022-09-17T16:49:41.630Z,9.82
2022-09-17T16:52:15.259Z,12.38
2022-09-17T16:54:48.918Z,13.50
2022-09-17T16:57:22.723Z,12.93
2022-09-17T17:02:29.769Z,13.10
2022-09-17T17:05:05.222Z,11.85
2022-09-17T17:07:38.998Z,11.38
2022-09-17T17:10:12.564Z,11.27
2022-09-17T17:12:46.045Z,10.60
2022-09-17T17:15:19.847Z,10.48
2022-09-17T17:17:53.614Z,11.45
2022-09-17T17:20:28.591Z,11.52
2022-09-17T17:23:02.344Z,11.32
2022-09-17T17:28:08.851Z,12.00
2022-09-17T17:30:42.215Z,13.85
2022-09-17T17:33:15.693Z,14.70
2022-09-17T17:35:50.628Z,14.77
2022-09-17T17:38:24.272Z,13.98
2022-09-17T17:43:41.930Z,13.63
2022-09-17T17:46:15.944Z,13.10
2022-09-17T17:48:49.539Z,14.63
2022-09-17T17:51:24.632Z,13.90
2022-09-17T17:53:58.221Z,14.98
2022-09-17T17:56:31.927Z,14.35
2022-09-17T18:01:39.337Z,13.40
2022-09-17T18:04:13.024Z,13.48
2022-09-17T18:06:49.299Z,15.02
2022-09-17T18:09:22.923Z,15.23
2022-09-17T18:11:56.820Z,14.88
2022-09-17T18:14:30.653Z,15.30
2022-09-17T18:19:37.643Z,15.57
2022-09-17T18:22:13.173Z,22.75
2022-09-17T18:24:47.201Z,17.05
2022-09-17T18:27:24.105Z,17.23
2022-09-17T18:29:58.531Z,16.23
2022-09-17T18:32:32.630Z,17.13
2022-09-17T18:35:07.320Z,17.27
2022-09-17T18:37:42.483Z,16.30
2022-09-17T18:40:16.072Z,15.60
2022-09-17T18:42:50.257Z,14.35
2022-09-17T18:45:23.825Z,14.85
2022-09-17T18:47:57.369Z,14.85
2022-09-17T18:50:31.124Z,14.18
2022-09-17T18:55:39.624Z,15.55
2022-09-17T18:58:13.124Z,18.67
2022-09-17T19:00:46.732Z,20.42
2022-09-17T19:03:20.349Z,14.48
2022-09-17T19:06:02.931Z,13.02
2022-09-17T19:08:38.281Z,13.43
2022-09-17T19:11:12.529Z,15.80
2022-09-17T19:13:48.815Z,11.45
2022-09-17T19:16:22.884Z,11.15
2022-09-17T19:18:56.568Z,10.55
2022-09-17T19:21:30.164Z,10.50
2022-09-17T19:24:05.919Z,9.73
2022-09-17T19:26:48.801Z,9.80
2022-09-17T19:29:24.383Z,9.93
2022-09-17T19:34:31.440Z,10.30
2022-09-17T19:37:05.185Z,9.63
2022-09-17T19:39:40.728Z,9.43
2022-09-17T19:42:14.889Z,9.55
2022-09-17T19:44:48.621Z,8.93
2022-09-17T19:47:22.488Z,9.05
2022-09-17T19:52:31.624Z,8.05
2022-09-17T19:55:18.044Z,7.05
2022-09-17T19:57:52.485Z,6.75
2022-09-17T20:00:26.154Z,6.28
2022-09-17T20:05:34.211Z,4.93
2022-09-17T20:08:09.504Z,4.78
2022-09-17T20:10:44.448Z,4.63
2022-09-17T20:13:19.884Z,4.60
2022-09-17T20:15:53.438Z,5.05
2022-09-17T20:18:29.295Z,5.53
2022-09-17T20:21:08.420Z,5.68
2022-09-17T20:23:42.119Z,5.43
2022-09-17T20:28:52.567Z,5.90
2022-09-17T20:31:27.758Z,5.40
2022-09-17T20:34:03.050Z,4.07
2022-09-17T20:36:36.984Z,4.07
2022-09-17T20:39:16.746Z,4.38
2022-09-17T20:41:54.507Z,6.05
2022-09-17T20:44:28.121Z,5.88
2022-09-17T20:47:02.242Z,7.32
2022-09-17T20:49:35.741Z,6.05
2022-09-17T20:52:17.925Z,6.53
2022-09-17T20:54:54.439Z,6.25
2022-09-17T20:57:31.605Z,6.60
2022-09-17T21:00:18.003Z,8.07
2022-09-17T21:02:56.224Z,8.57
2022-09-17T21:05:29.864Z,11.68
2022-09-17T21:08:06.357Z,11.52
2022-09-17T21:10:46.903Z,10.23
2022-09-17T21:13:21.846Z,9.38
2022-09-17T21:15:59.307Z,9.35
2022-09-17T21:18:37.396Z,9.80
2022-09-17T21:21:17.439Z,10.40
2022-09-17T21:23:50.965Z,10.93
2022-09-17T21:26:25.663Z,10.20
2022-09-17T21:29:00.730Z,9.88
2022-09-17T21:31:36.809Z,10.57
2022-09-17T21:34:13.790Z,11.32
2022-09-17T21:36:48.351Z,10.55
2022-09-17T21:39:21.861Z,9.73
2022-09-17T21:41:55.437Z,9.38
2022-09-17T21:44:30.395Z,9.63
2022-09-17T21:47:03.919Z,9.30
2022-09-17T21:49:37.457Z,8.50
2022-09-17T21:52:13.443Z,8.38
2022-09-17T21:54:47.037Z,10.68
2022-09-17T21:57:20.654Z,9.05
2022-09-17T21:59:55.554Z,8.50
2022-09-17T22:02:31.774Z,9.90
2022-09-17T22:05:05.720Z,8.13
2022-09-17T22:07:39.268Z,8.88
2022-09-17T22:10:14.415Z,8.38
2022-09-17T22:12:47.979Z,7.70
2022-09-17T22:15:22.811Z,7.75
2022-09-17T22:17:56.314Z,7.78
2022-09-17T22:23:07.001Z,7.35
2022-09-17T22:25:40.531Z,7.95
2022-09-17T22:28:21.373Z,7.45
2022-09-17T22:30:56.815Z,7.28
2022-09-17T22:50:52.499Z,7.53
2022-09-17T22:53:25.936Z,7.13
2022-09-17T22:56:01.176Z,6.60
2022-09-17T22:58:35.087Z,7.00
2022-09-17T23:01:12.557Z,7.57
2022-09-17T23:03:49.604Z,5.78
2022-09-17T23:06:27.655Z,5.97
2022-09-17T23:09:01.240Z,6.20
2022-09-17T23:11:36.486Z,6.63
2022-09-17T23:14:15.204Z,6.22
2022-09-17T23:16:51.408Z,6.75
2022-09-17T23:19:29.122Z,6.90
2022-09-17T23:22:05.813Z,6.22
2022-09-17T23:24:40.889Z,6.15
2022-09-17T23:27:16.176Z,6.63
2022-09-17T23:29:49.697Z,6.47
2022-09-17T23:32:25.290Z,6.22
2022-09-17T23:35:01.183Z,5.65
2022-09-17T23:37:38.548Z,6.30
2022-09-17T23:40:14.699Z,5.90
2022-09-17T23:42:55.562Z,6.05
2022-09-17T23:45:33.431Z,5.50
2022-09-17T23:48:10.904Z,5.80
2022-09-17T23:50:48.339Z,5.63
2022-09-17T23:53:25.569Z,5.07
2022-09-17T23:56:03.041Z,5.25
2022-09-17T23:58:36.702Z,5.22
